createdAt,value
2023-11-07T00:01:38.890Z,99825.16
2023-11-07T00:04:09.427Z,99827.65
2023-11-07T00:06:41.390Z,99826.64
2023-11-07T00:09:09.927Z,99826.27
2023-11-07T00:11:40.465Z,99823.35
2023-11-07T00:14:08.423Z,99826.85
2023-11-07T00:16:37.307Z,99834.80
2023-11-07T00:19:12.224Z,99831.81
2023-11-07T00:21:40.224Z,99832.33
2023-11-07T00:24:08.503Z,99831.77
2023-11-07T00:26:36.857Z,99832.77
2023-11-07T00:29:04.854Z,99832.52
2023-11-07T00:31:32.735Z,99832.72
2023-11-07T00:34:02.096Z,99842.21
2023-11-07T00:36:30.275Z,99840.67
2023-11-07T00:38:58.313Z,99837.83
2023-11-07T00:41:26.990Z,99837.02
2023-11-07T00:43:56.176Z,99837.67
2023-11-07T00:46:24.483Z,99840.41
2023-11-07T00:48:52.513Z,99834.27
2023-11-07T00:51:20.823Z,99836.86
2023-11-07T00:53:51.326Z,99836.44
2023-11-07T00:56:21.484Z,99844.08
2023-11-07T00:58:49.903Z,99847.59
2023-11-07T01:01:18.291Z,99839.38
2023-11-07T01:03:46.316Z,99839.91
2023-11-07T01:06:14.609Z,99841.31
2023-11-07T01:08:42.685Z,99836.77
2023-11-07T01:11:10.603Z,99840.04
2023-11-07T01:13:39.646Z,99843.55
2023-11-07T01:16:10.496Z,99853.48
2023-11-07T01:18:39.903Z,99854.42
2023-11-07T01:21:08.218Z,99860.83
2023-11-07T01:23:36.194Z,99857.48
2023-11-07T01:26:06.179Z,99864.86
2023-11-07T01:28:34.162Z,99866.27
2023-11-07T01:31:04.492Z,99861.64
2023-11-07T01:33:33.116Z,99864.85
2023-11-07T01:36:01.681Z,99867.49
2023-11-07T01:38:29.730Z,99864.77
2023-11-07T01:40:57.722Z,99868.73
2023-11-07T01:43:25.648Z,99870.92
2023-11-07T01:45:54.393Z,99872.04
2023-11-07T01:48:27.293Z,99868.65
2023-11-07T01:50:56.386Z,99872.98
2023-11-07T01:53:25.277Z,99879.01
2023-11-07T01:55:53.185Z,99882.55
2023-11-07T01:58:21.825Z,99876.83
2023-11-07T02:00:54.848Z,99877.23
2023-11-07T02:03:25.113Z,99875.01
2023-11-07T02:05:53.212Z,99879.86
2023-11-07T02:08:27.001Z,99886.23
2023-11-07T02:10:54.957Z,99881.65
2023-11-07T02:13:22.889Z,99887.43
2023-11-07T02:15:50.853Z,99885.11
2023-11-07T02:18:19.426Z,99883.50
2023-11-07T02:20:47.627Z,99887.91
2023-11-07T02:23:35.941Z,99890.38
2023-11-07T02:26:04.290Z,99892.98
2023-11-07T02:28:33.576Z,99891.37
2023-11-07T02:31:01.565Z,99895.32
2023-11-07T02:33:29.673Z,99897.05
2023-11-07T02:35:57.616Z,99899.02
2023-11-07T02:38:25.721Z,99898.91
2023-11-07T02:40:53.651Z,99902.59
2023-11-07T02:43:21.696Z,99904.27
2023-11-07T02:45:50.744Z,99907.82
2023-11-07T02:48:18.877Z,99907.57
2023-11-07T02:50:46.990Z,99917.05
2023-11-07T02:53:15.486Z,99915.61
2023-11-07T02:55:43.680Z,99920.18
2023-11-07T02:58:12.202Z,99921.30
2023-11-07T03:00:40.599Z,99918.98
2023-11-07T03:03:09.583Z,99925.09
2023-11-07T03:05:37.903Z,99924.86
2023-11-07T03:08:07.900Z,99915.72
2023-11-07T03:10:36.108Z,99930.08
2023-11-07T03:13:05.240Z,99930.92
2023-11-07T03:15:33.238Z,99934.63
2023-11-07T03:18:01.349Z,99934.92
2023-11-07T03:20:29.521Z,99940.02
2023-11-07T03:22:57.762Z,99942.05
2023-11-07T03:25:27.105Z,99942.01
2023-11-07T03:27:55.140Z,99942.98
2023-11-07T03:30:23.510Z,99940.91
2023-11-07T03:32:51.912Z,99943.20
2023-11-07T03:35:20.995Z,99944.23
2023-11-07T03:37:49.194Z,99945.06
2023-11-07T03:40:17.161Z,99948.78
2023-11-07T03:42:45.072Z,99951.58
2023-11-07T03:45:13.211Z,99955.14
2023-11-07T03:47:41.630Z,99956.58
2023-11-07T03:50:11.616Z,99961.92
2023-11-07T03:52:39.633Z,99961.95
2023-11-07T03:55:08.153Z,99961.38
2023-11-07T03:57:36.021Z,99959.08
2023-11-07T04:00:04.641Z,99962.05
2023-11-07T04:02:33.524Z,99959.80
2023-11-07T04:05:01.449Z,99960.63
2023-11-07T04:07:29.457Z,99961.89
2023-11-07T04:09:58.437Z,99959.48
2023-11-07T04:12:26.371Z,99963.58
2023-11-07T04:14:55.769Z,99968.02
2023-11-07T04:17:23.916Z,99972.55
2023-11-07T04:19:51.863Z,99976.23
2023-11-07T04:22:19.782Z,99976.81
2023-11-07T04:24:48.326Z,99977.61
2023-11-07T04:27:16.345Z,99978.27
2023-11-07T04:29:44.750Z,99982.92
2023-11-07T04:32:13.002Z,99983.88
2023-11-07T04:34:40.909Z,99980.65
2023-11-07T04:37:08.869Z,99982.89
2023-11-07T04:39:36.842Z,99981.27
2023-11-07T04:42:05.139Z,99983.84
2023-11-07T04:44:33.149Z,99981.75
2023-11-07T04:47:03.718Z,99984.99
2023-11-07T04:49:32.338Z,99985.25
2023-11-07T04:52:02.555Z,99987.16
2023-11-07T04:54:31.566Z,99988.59
2023-11-07T04:56:59.644Z,99988.05
2023-11-07T04:59:28.030Z,99981.74
2023-11-07T05:01:56.012Z,99982.52
2023-11-07T05:04:24.047Z,99989.58
2023-11-07T05:06:52.529Z,99992.82
2023-11-07T05:09:20.617Z,99991.35
2023-11-07T05:11:48.519Z,99993.46
2023-11-07T05:14:16.375Z,99997.78
2023-11-07T05:16:44.417Z,99999.89
2023-11-07T05:19:13.844Z,99998.08
2023-11-07T05:21:42.410Z,100001.70
2023-11-07T05:24:10.478Z,100001.80
2023-11-07T05:26:38.527Z,100000.97
2023-11-07T05:29:07.197Z,100004.06
2023-11-07T05:31:35.210Z,100009.13
2023-11-07T05:34:03.236Z,100012.98
2023-11-07T05:36:31.111Z,100011.68
2023-11-07T05:38:59.874Z,100015.77
2023-11-07T05:41:27.782Z,100019.62
2023-11-07T05:43:55.624Z,100017.73
2023-11-07T05:46:24.735Z,100025.00
2023-11-07T05:48:53.269Z,100026.98
2023-11-07T05:51:24.351Z,100032.53
2023-11-07T05:53:52.415Z,100035.04
2023-11-07T05:56:20.570Z,100034.95
2023-11-07T05:58:50.578Z,100037.88
2023-11-07T06:01:19.284Z,100040.27
2023-11-07T06:04:35.019Z,100040.21
2023-11-07T06:07:04.287Z,100045.27
2023-11-07T06:09:32.738Z,100046.48
2023-11-07T06:12:01.845Z,100048.79
2023-11-07T06:14:29.828Z,100046.14
2023-11-07T06:16:57.736Z,100054.60
2023-11-07T06:19:25.698Z,100056.13
2023-11-07T06:21:54.415Z,100058.35
2023-11-07T06:24:22.701Z,100061.85
2023-11-07T06:26:51.012Z,100066.48
2023-11-07T06:29:18.974Z,100069.44
2023-11-07T06:31:47.308Z,100071.54
2023-11-07T06:34:15.601Z,100082.16
2023-11-07T06:36:43.782Z,100085.89
2023-11-07T06:39:13.118Z,100087.30
2023-11-07T06:41:41.637Z,100093.86
2023-11-07T06:44:09.967Z,100095.78
2023-11-07T06:46:42.156Z,100091.83
2023-11-07T06:49:10.413Z,100094.29
2023-11-07T06:51:38.558Z,100091.33
2023-11-07T06:54:06.641Z,100094.27
2023-11-07T06:56:34.564Z,100101.61
2023-11-07T06:59:02.575Z,100099.35
2023-11-07T07:01:31.002Z,100097.88
2023-11-07T07:03:59.703Z,100096.66
2023-11-07T07:06:28.607Z,100104.94
2023-11-07T07:08:56.589Z,100107.65
2023-11-07T07:11:24.496Z,100112.88
2023-11-07T07:13:53.808Z,100115.14
2023-11-07T07:16:24.999Z,100118.11
2023-11-07T07:18:53.136Z,100115.97
2023-11-07T07:21:22.713Z,100125.35
2023-11-07T07:23:50.737Z,100121.30
2023-11-07T07:26:18.754Z,100128.93
2023-11-07T07:28:46.803Z,100132.75
2023-11-07T07:31:18.134Z,100131.54
2023-11-07T07:33:48.330Z,100134.84
2023-11-07T07:36:17.658Z,100135.96
2023-11-07T07:38:45.669Z,100135.35
2023-11-07T07:41:14.228Z,100137.18
2023-11-07T07:43:42.183Z,100138.99
2023-11-07T07:46:11.660Z,100134.69
2023-11-07T07:48:39.921Z,100138.52
2023-11-07T07:51:08.252Z,100141.20
2023-11-07T07:53:36.450Z,100143.95
2023-11-07T07:56:13.608Z,100145.67
2023-11-07T07:58:44.478Z,100148.79
2023-11-07T08:01:13.110Z,100148.10
2023-11-07T08:03:42.521Z,100149.52
2023-11-07T08:06:13.295Z,100150.80
2023-11-07T08:08:41.485Z,100151.30
2023-11-07T08:11:09.436Z,100149.70
2023-11-07T08:13:37.363Z,100150.94
2023-11-07T08:16:09.456Z,100148.23
2023-11-07T08:18:39.373Z,100150.88
2023-11-07T08:21:09.299Z,100152.89
2023-11-07T08:23:37.496Z,100153.92
2023-11-07T08:26:05.397Z,100157.72
2023-11-07T08:28:33.425Z,100156.92
2023-11-07T08:31:01.938Z,100150.70
2023-11-07T08:33:30.368Z,100156.36
2023-11-07T08:35:58.517Z,100152.66
2023-11-07T08:38:28.446Z,100154.64
2023-11-07T08:40:58.057Z,100162.92
2023-11-07T08:43:26.084Z,100160.17
2023-11-07T08:45:54.020Z,100161.80
2023-11-07T08:48:22.120Z,100167.26
2023-11-07T08:50:52.402Z,100162.76
2023-11-07T08:53:20.434Z,100163.41
2023-11-07T08:55:51.389Z,100163.73
2023-11-07T08:58:20.518Z,100164.38
2023-11-07T09:00:51.425Z,100162.82
2023-11-07T09:03:20.066Z,100162.02
2023-11-07T09:05:48.934Z,100162.63
2023-11-07T09:08:16.908Z,100164.15
2023-11-07T09:10:44.942Z,100172.74
2023-11-07T09:13:13.066Z,100173.41
2023-11-07T09:15:42.696Z,100172.75
2023-11-07T09:18:11.837Z,100176.92
2023-11-07T09:20:40.336Z,100177.33
2023-11-07T09:23:09.985Z,100181.09
2023-11-07T09:25:38.274Z,100177.20
2023-11-07T09:28:06.297Z,100179.69
2023-11-07T09:30:34.395Z,100174.89
2023-11-07T09:33:07.633Z,100174.30
2023-11-07T09:35:37.278Z,100179.86
2023-11-07T09:38:05.348Z,100180.93
2023-11-07T09:40:33.568Z,100181.21
2023-11-07T09:43:03.302Z,100181.34
2023-11-07T09:45:37.491Z,100179.10
2023-11-07T09:48:11.104Z,100182.52
2023-11-07T09:50:42.694Z,100176.82
2023-11-07T09:53:14.594Z,100183.81
2023-11-07T09:55:42.634Z,100181.16
2023-11-07T09:58:19.834Z,100179.30
2023-11-07T10:00:49.653Z,100176.12
2023-11-07T10:03:18.803Z,100180.27
2023-11-07T10:05:48.782Z,100178.46
2023-11-07T10:08:20.789Z,100175.50
2023-11-07T10:11:12.529Z,100173.19
2023-11-07T10:14:00.519Z,100168.18
2023-11-07T10:16:42.842Z,100170.15
2023-11-07T10:19:17.315Z,100174.96
2023-11-07T10:21:46.002Z,100179.11
2023-11-07T10:24:15.762Z,100177.70
2023-11-07T10:27:01.880Z,100172.41
2023-11-07T10:29:40.444Z,100178.30
2023-11-07T10:32:11.806Z,100178.34
2023-11-07T10:34:40.936Z,100175.86
2023-11-07T10:37:09.333Z,100171.48
2023-11-07T10:39:37.474Z,100173.30
2023-11-07T10:42:18.102Z,100170.07
2023-11-07T10:44:49.303Z,100170.13
2023-11-07T10:47:18.788Z,100166.75
2023-11-07T10:49:50.200Z,100169.65
2023-11-07T10:52:19.434Z,100165.83
2023-11-07T10:54:47.353Z,100162.55
2023-11-07T10:57:23.860Z,100162.63
2023-11-07T11:00:01.678Z,100163.20
2023-11-07T11:02:31.823Z,100162.86
2023-11-07T11:05:02.451Z,100155.09
2023-11-07T11:07:32.964Z,100156.48
2023-11-07T11:10:03.427Z,100154.67
2023-11-07T11:12:34.251Z,100156.48
2023-11-07T11:15:03.564Z,100155.49
2023-11-07T11:17:42.336Z,100153.58
2023-11-07T11:20:25.119Z,100151.79
2023-11-07T11:23:07.659Z,100152.60
2023-11-07T11:25:58.528Z,100145.10
2023-11-07T11:28:41.646Z,100142.11
2023-11-07T11:31:20.019Z,100146.55
2023-11-07T11:33:49.075Z,100147.05
2023-11-07T11:36:35.053Z,100152.84
2023-11-07T11:39:37.310Z,100151.92
2023-11-07T11:42:10.759Z,100150.58
2023-11-07T11:44:42.761Z,100152.55
2023-11-07T11:47:50.721Z,100149.84
2023-11-07T11:50:19.309Z,100151.27
2023-11-07T11:52:47.714Z,100150.86
2023-11-07T11:55:16.376Z,100147.52
2023-11-07T11:58:27.420Z,100148.23
2023-11-07T12:00:56.038Z,100147.17
2023-11-07T12:03:25.345Z,100149.94
2023-11-07T12:06:05.551Z,100148.55
2023-11-07T12:08:38.654Z,100147.73
2023-11-07T12:11:07.576Z,100147.09
2023-11-07T12:13:35.650Z,100146.74
2023-11-07T12:16:15.056Z,100150.06
2023-11-07T12:18:48.943Z,100148.42
2023-11-07T12:21:29.083Z,100147.49
2023-11-07T12:24:00.921Z,100150.30
2023-11-07T12:26:40.323Z,100150.27
2023-11-07T12:29:09.895Z,100150.62
2023-11-07T12:31:41.503Z,100147.91
2023-11-07T12:34:10.507Z,100150.09
2023-11-07T12:36:40.771Z,100150.27
2023-11-07T12:39:10.311Z,100149.94
2023-11-07T12:41:38.513Z,100149.80
2023-11-07T12:44:14.582Z,100145.73
2023-11-07T12:46:42.824Z,100148.77
2023-11-07T12:49:40.656Z,100150.83
2023-11-07T12:52:13.104Z,100150.20
2023-11-07T12:54:41.488Z,100151.70
2023-11-07T12:57:10.749Z,100147.90
2023-11-07T12:59:38.796Z,100150.48
2023-11-07T13:02:06.844Z,100147.33
2023-11-07T13:04:35.813Z,100149.79
2023-11-07T13:07:05.180Z,100148.38
2023-11-07T13:09:36.962Z,100147.96
2023-11-07T13:12:09.846Z,100148.02
2023-11-07T13:14:40.931Z,100144.77
2023-11-07T13:17:09.873Z,100149.53
2023-11-07T13:19:39.611Z,100148.77
2023-11-07T13:22:11.394Z,100147.96
2023-11-07T13:24:39.941Z,100148.52
2023-11-07T13:27:10.627Z,100152.04
2023-11-07T13:29:38.652Z,100155.85
2023-11-07T13:32:12.676Z,100153.26
2023-11-07T13:34:40.899Z,100150.86
2023-11-07T13:37:10.434Z,100150.27
2023-11-07T13:39:47.809Z,100152.86
2023-11-07T13:42:15.991Z,100155.82
2023-11-07T13:44:44.521Z,100152.42
2023-11-07T13:47:13.680Z,100154.83
2023-11-07T13:49:42.945Z,100159.09
2023-11-07T13:52:10.972Z,100156.16
2023-11-07T13:54:39.822Z,100155.01
2023-11-07T13:57:08.071Z,100153.48
2023-11-07T13:59:37.244Z,100154.02
2023-11-07T14:02:05.451Z,100157.41
2023-11-07T14:04:35.398Z,100159.09
2023-11-07T14:07:03.675Z,100158.39
2023-11-07T14:09:32.438Z,100160.91
2023-11-07T14:12:03.411Z,100162.36
2023-11-07T14:14:32.890Z,100161.75
2023-11-07T14:17:00.932Z,100160.98
2023-11-07T14:19:29.455Z,100164.08
2023-11-07T14:21:57.899Z,100161.66
2023-11-07T14:24:27.259Z,100162.61
2023-11-07T14:26:55.489Z,100160.30
2023-11-07T14:29:38.872Z,100161.83
2023-11-07T14:32:15.797Z,100158.23
2023-11-07T14:34:43.867Z,100158.50
2023-11-07T14:37:12.310Z,100156.96
2023-11-07T14:39:40.382Z,100128.28
2023-11-07T14:42:08.465Z,100160.63
2023-11-07T14:44:37.324Z,100165.52
2023-11-07T14:47:07.854Z,100162.39
2023-11-07T14:49:35.789Z,100155.59
2023-11-07T14:52:07.953Z,100153.86
2023-11-07T14:54:37.034Z,100156.52
2023-11-07T14:57:07.285Z,100155.41
2023-11-07T14:59:37.193Z,100152.80
2023-11-07T15:02:14.404Z,100156.83
2023-11-07T15:04:46.591Z,100152.80
2023-11-07T15:07:14.501Z,100155.79
2023-11-07T15:09:42.522Z,100153.13
2023-11-07T15:12:10.608Z,100152.19
2023-11-07T15:14:38.526Z,100153.08
2023-11-07T15:17:06.468Z,100148.42
2023-11-07T15:19:34.463Z,100152.20
2023-11-07T15:22:02.433Z,100149.96
2023-11-07T15:24:30.379Z,100147.90
2023-11-07T15:26:58.914Z,100147.66
2023-11-07T15:29:27.893Z,100149.66
2023-11-07T15:31:56.227Z,100147.23
2023-11-07T15:34:49.531Z,100148.33
2023-11-07T15:37:19.678Z,100147.77
2023-11-07T15:44:23.864Z,100153.09
2023-11-07T15:47:43.560Z,100157.05
2023-11-07T15:50:03.858Z,100154.83
2023-11-07T15:52:33.427Z,100156.67
2023-11-07T15:55:05.545Z,100151.23
2023-11-07T15:57:35.296Z,100143.79
2023-11-07T16:00:09.764Z,100153.27
2023-11-07T16:02:42.987Z,100154.84
2023-11-07T16:05:20.468Z,100156.46
2023-11-07T16:07:49.330Z,100159.73
2023-11-07T16:10:43.912Z,100158.54
2023-11-07T16:13:13.220Z,100160.92
2023-11-07T16:15:41.554Z,100157.39
2023-11-07T16:18:12.148Z,100157.59
2023-11-07T16:20:44.173Z,100151.11
2023-11-07T16:23:12.379Z,100155.59
2023-11-07T16:25:43.280Z,100160.55
2023-11-07T16:28:11.288Z,100163.50
2023-11-07T16:30:42.545Z,100162.01
2023-11-07T16:33:16.675Z,100162.55
2023-11-07T16:35:44.999Z,100160.86
2023-11-07T16:38:16.583Z,100161.02
2023-11-07T16:40:46.486Z,100160.64
2023-11-07T16:43:14.583Z,100162.59
2023-11-07T16:45:42.626Z,100164.61
2023-11-07T16:48:10.786Z,100167.09
2023-11-07T16:50:39.009Z,100168.16
2023-11-07T16:53:09.352Z,100166.13
2023-11-07T16:55:40.074Z,100169.92
2023-11-07T16:58:09.244Z,100164.19
2023-11-07T17:00:38.130Z,100170.35
2023-11-07T17:03:06.214Z,100167.58
2023-11-07T17:05:36.583Z,100166.13
2023-11-07T17:08:07.714Z,100166.75
2023-11-07T17:10:35.640Z,100166.55
2023-11-07T17:13:03.536Z,100167.86
2023-11-07T17:15:32.354Z,100172.48
2023-11-07T17:18:03.596Z,100171.21
2023-11-07T17:20:31.713Z,100176.46
2023-11-07T17:23:00.953Z,100173.23
2023-11-07T17:25:35.362Z,100172.80
2023-11-07T17:28:04.342Z,100180.16
2023-11-07T17:30:32.738Z,100178.44
2023-11-07T17:33:00.854Z,100182.02
2023-11-07T17:35:31.038Z,100178.41
2023-11-07T17:37:59.126Z,100176.05
2023-11-07T17:40:29.096Z,100175.06
2023-11-07T17:42:57.000Z,100176.38
2023-11-07T17:45:24.913Z,100172.04
2023-11-07T17:47:55.242Z,100168.33
2023-11-07T17:50:23.359Z,100164.06
2023-11-07T17:52:52.593Z,100168.91
2023-11-07T17:55:22.197Z,100169.44
2023-11-07T17:57:50.141Z,100167.45
2023-11-07T18:00:19.956Z,100169.39
2023-11-07T18:02:48.662Z,100167.44
2023-11-07T18:05:16.971Z,100164.51
2023-11-07T18:07:44.896Z,100164.63
2023-11-07T18:10:14.507Z,100159.43
2023-11-07T18:12:43.893Z,100159.23
2023-11-07T18:15:11.987Z,100159.55
2023-11-07T18:17:40.174Z,100161.61
2023-11-07T18:20:13.185Z,100161.15
2023-11-07T18:22:49.421Z,100156.55
2023-11-07T18:25:31.663Z,100158.84
2023-11-07T18:28:04.211Z,100161.20
2023-11-07T18:30:33.535Z,100159.57
2023-11-07T18:33:09.078Z,100158.92
2023-11-07T18:35:37.631Z,100156.26
2023-11-07T18:38:06.089Z,100160.91
2023-11-07T18:40:34.454Z,100157.39
2023-11-07T18:43:09.794Z,100161.77
2023-11-07T18:45:41.938Z,100158.95
2023-11-07T18:48:11.875Z,100158.93
2023-11-07T18:50:42.538Z,100158.65
2023-11-07T18:53:10.577Z,100163.28
2023-11-07T18:55:38.787Z,100167.20
2023-11-07T18:58:16.918Z,100166.27
2023-11-07T19:00:46.201Z,100167.65
2023-11-07T19:03:17.274Z,100161.67
2023-11-07T19:05:45.407Z,100170.66
2023-11-07T19:08:13.580Z,100173.98
2023-11-07T19:10:42.762Z,100172.97
2023-11-07T19:13:12.579Z,100171.73
2023-11-07T19:15:40.965Z,100170.68
2023-11-07T19:18:15.165Z,100169.05
2023-11-07T19:21:20.668Z,100172.94
2023-11-07T19:24:00.259Z,100166.98
2023-11-07T19:26:34.960Z,100168.09
2023-11-07T19:29:06.948Z,100172.01
2023-11-07T19:31:37.617Z,100172.73
2023-11-07T19:34:06.466Z,100168.58
2023-11-07T19:36:39.344Z,100169.91
2023-11-07T19:39:07.528Z,100167.84
2023-11-07T19:41:35.426Z,100166.21
2023-11-07T19:44:06.805Z,100164.52
2023-11-07T19:46:36.217Z,100160.41
2023-11-07T19:49:07.126Z,100158.80
2023-11-07T19:51:35.514Z,100162.77
2023-11-07T19:54:04.159Z,100156.56
2023-11-07T19:56:38.677Z,100168.29
2023-11-07T19:59:10.190Z,100156.97
2023-11-07T20:01:41.490Z,100162.17
2023-11-07T20:04:11.963Z,100170.73
2023-11-07T20:06:53.335Z,100164.20
2023-11-07T20:09:29.971Z,100177.39
2023-11-07T20:12:20.683Z,100161.95
2023-11-07T20:19:27.942Z,100174.53
2023-11-07T20:22:03.873Z,100153.23
2023-11-07T20:24:32.664Z,100176.69
2023-11-07T20:27:03.215Z,100173.97
2023-11-07T20:33:59.186Z,100168.02
2023-11-07T20:36:33.581Z,100172.65
2023-11-07T20:39:17.249Z,100172.98
2023-11-07T20:41:49.332Z,100164.76
2023-11-07T20:44:32.309Z,100171.36
2023-11-07T20:47:40.096Z,100166.33
2023-11-07T21:11:27.520Z,100153.30
2023-11-07T21:13:54.690Z,100152.08
2023-11-07T21:16:21.248Z,100150.14
2023-11-07T21:18:48.120Z,100146.59
2023-11-07T21:21:19.032Z,100148.21
2023-11-07T21:23:57.751Z,100146.11
2023-11-07T21:26:30.354Z,100143.92
2023-11-07T21:28:57.363Z,100141.89
2023-11-07T21:31:24.029Z,100142.48
2023-11-07T21:33:52.231Z,100144.63
2023-11-07T21:36:18.857Z,100143.36
2023-11-07T21:38:46.498Z,100148.14
2023-11-07T21:41:18.934Z,100142.08
2023-11-07T21:43:45.562Z,100143.54
2023-11-07T21:46:12.923Z,100142.14
2023-11-07T21:48:39.601Z,100141.02
2023-11-07T21:51:06.579Z,100145.33
2023-11-07T21:53:33.580Z,100144.77
2023-11-07T21:56:00.160Z,100146.98
2023-11-07T21:58:26.705Z,100150.08
2023-11-07T22:00:53.357Z,100127.13
2023-11-07T22:03:20.259Z,100145.70
2023-11-07T22:05:46.907Z,100144.84
2023-11-07T22:08:15.142Z,100145.79
2023-11-07T22:10:41.860Z,100148.38
2023-11-07T22:13:08.336Z,100147.52
2023-11-07T22:15:34.881Z,100150.23
2023-11-07T22:18:01.483Z,100147.83
2023-11-07T22:20:28.142Z,100149.23
2023-11-07T22:22:54.664Z,100145.77
2023-11-07T22:25:21.268Z,100153.39
2023-11-07T22:27:47.945Z,100148.01
2023-11-07T22:30:16.126Z,100139.81
2023-11-07T22:32:42.936Z,100143.09
2023-11-07T22:35:09.962Z,100139.39
2023-11-07T22:37:37.676Z,100141.73
2023-11-07T22:40:10.147Z,100138.08
2023-11-07T22:42:40.610Z,100138.80
2023-11-07T22:45:08.801Z,100136.02
2023-11-07T22:47:36.882Z,100135.08
2023-11-07T22:50:06.371Z,100131.98
2023-11-07T22:52:33.703Z,100128.92
2023-11-07T22:55:00.324Z,100128.81
2023-11-07T22:57:26.951Z,100131.63
2023-11-07T22:59:53.413Z,100130.42
2023-11-07T23:02:20.581Z,100129.38
2023-11-07T23:04:47.430Z,100126.45
2023-11-07T23:07:14.212Z,100128.67
2023-11-07T23:09:41.252Z,100128.29
2023-11-07T23:12:07.988Z,100127.36
2023-11-07T23:14:35.089Z,100128.23
2023-11-07T23:17:01.836Z,100131.08
2023-11-07T23:19:28.542Z,100129.91
2023-11-07T23:21:55.021Z,100129.13
2023-11-07T23:24:21.632Z,100124.62
2023-11-07T23:26:49.043Z,100127.05
2023-11-07T23:29:17.395Z,100129.20
2023-11-07T23:31:43.963Z,100127.75
2023-11-07T23:34:10.548Z,100127.33
2023-11-07T23:36:37.182Z,100127.48
2023-11-07T23:39:04.834Z,100128.85
2023-11-07T23:41:31.315Z,100128.45
2023-11-07T23:43:57.760Z,100126.42
2023-11-07T23:46:24.254Z,100122.95
2023-11-07T23:48:50.881Z,100125.91
2023-11-07T23:51:17.895Z,100126.21
2023-11-07T23:53:44.621Z,100121.73
2023-11-07T23:56:11.253Z,100120.31
2023-11-07T23:58:38.430Z,100123.75
